sensor_id;sensor_type;location;lat;lon;timestamp;P1;durP1;ratioP1;P2;durP2;ratioP2
49221;SDS011;35047;37.588;-122.048;2022-12-17T00:00:30;6.82;;;3.00;;
49221;SDS011;35047;37.588;-122.048;2022-12-17T00:03:16;7.53;;;3.05;;
49221;SDS011;35047;37.588;-122.048;2022-12-17T00:06:01;5.70;;;1.83;;
49221;SDS011;35047;37.588;-122.048;2022-12-17T00:08:46;3.65;;;2.70;;
49221;SDS011;35047;37.588;-122.048;2022-12-17T00:11:32;2.72;;;2.28;;
49221;SDS011;35047;37.588;-122.048;2022-12-17T00:14:18;4.20;;;2.35;;
49221;SDS011;35047;37.588;-122.048;2022-12-17T00:17:03;3.60;;;2.35;;
49221;SDS011;35047;37.588;-122.048;2022-12-17T00:19:48;3.03;;;2.08;;
49221;SDS011;35047;37.588;-122.048;2022-12-17T00:22:33;3.65;;;1.83;;
49221;SDS011;35047;37.588;-122.048;2022-12-17T00:25:19;4.75;;;2.72;;
49221;SDS011;35047;37.588;-122.048;2022-12-17T00:28:08;3.80;;;2.35;;
49221;SDS011;35047;37.588;-122.048;2022-12-17T00:30:55;2.53;;;2.15;;
49221;SDS011;35047;37.588;-122.048;2022-12-17T00:33:41;6.15;;;3.17;;
49221;SDS011;35047;37.588;-122.048;2022-12-17T00:36:26;4.93;;;2.85;;
49221;SDS011;35047;37.588;-122.048;2022-12-17T00:39:11;4.47;;;2.75;;
49221;SDS011;35047;37.588;-122.048;2022-12-17T00:41:57;5.28;;;2.95;;
49221;SDS011;35047;37.588;-122.048;2022-12-17T00:44:43;4.85;;;2.92;;
49221;SDS011;35047;37.588;-122.048;2022-12-17T00:47:27;5.68;;;3.08;;
49221;SDS011;35047;37.588;-122.048;2022-12-17T00:50:13;3.83;;;2.78;;
49221;SDS011;35047;37.588;-122.048;2022-12-17T00:52:59;6.65;;;2.60;;
49221;SDS011;35047;37.588;-122.048;2022-12-17T00:55:44;6.22;;;2.88;;
49221;SDS011;35047;37.588;-122.048;2022-12-17T00:58:28;6.05;;;3.13;;
49221;SDS011;35047;37.588;-122.048;2022-12-17T01:01:14;3.72;;;2.83;;
49221;SDS011;35047;37.588;-122.048;2022-12-17T01:03:59;4.60;;;2.88;;
49221;SDS011;35047;37.588;-122.048;2022-12-17T01:06:45;6.28;;;3.42;;
49221;SDS011;35047;37.588;-122.048;2022-12-17T01:09:30;6.32;;;3.28;;
49221;SDS011;35047;37.588;-122.048;2022-12-17T01:12:16;5.13;;;2.88;;
49221;SDS011;35047;37.588;-122.048;2022-12-17T01:15:03;4.60;;;3.05;;
49221;SDS011;35047;37.588;-122.048;2022-12-17T01:17:48;4.00;;;3.08;;
49221;SDS011;35047;37.588;-122.048;2022-12-17T01:20:33;5.88;;;3.30;;
49221;SDS011;35047;37.588;-122.048;2022-12-17T01:23:19;4.30;;;2.10;;
49221;SDS011;35047;37.588;-122.048;2022-12-17T01:26:06;6.03;;;3.47;;
49221;SDS011;35047;37.588;-122.048;2022-12-17T01:28:50;10.50;;;3.00;;
49221;SDS011;35047;37.588;-122.048;2022-12-17T01:31:36;5.80;;;3.10;;
49221;SDS011;35047;37.588;-122.048;2022-12-17T01:34:22;5.82;;;3.63;;
49221;SDS011;35047;37.588;-122.048;2022-12-17T01:37:07;5.07;;;3.20;;
49221;SDS011;35047;37.588;-122.048;2022-12-17T01:39:53;5.47;;;3.83;;
49221;SDS011;35047;37.588;-122.048;2022-12-17T01:42:42;5.43;;;3.22;;
49221;SDS011;35047;37.588;-122.048;2022-12-17T01:45:40;3.90;;;3.13;;
49221;SDS011;35047;37.588;-122.048;2022-12-17T01:48:36;5.60;;;2.63;;
49221;SDS011;35047;37.588;-122.048;2022-12-17T01:51:24;4.25;;;2.50;;
49221;SDS011;35047;37.588;-122.048;2022-12-17T01:54:10;10.13;;;3.88;;
49221;SDS011;35047;37.588;-122.048;2022-12-17T01:56:56;10.18;;;3.38;;
49221;SDS011;35047;37.588;-122.048;2022-12-17T01:59:49;9.70;;;3.85;;
49221;SDS011;35047;37.588;-122.048;2022-12-17T02:02:44;6.43;;;3.33;;
49221;SDS011;35047;37.588;-122.048;2022-12-17T02:05:37;4.75;;;3.03;;
49221;SDS011;35047;37.588;-122.048;2022-12-17T02:11:22;4.63;;;2.87;;
49221;SDS011;35047;37.588;-122.048;2022-12-17T02:17:09;5.55;;;3.25;;
49221;SDS011;35047;37.588;-122.048;2022-12-17T02:23:09;4.75;;;3.22;;
49221;SDS011;35047;37.588;-122.048;2022-12-17T02:26:10;7.60;;;3.20;;
49221;SDS011;35047;37.588;-122.048;2022-12-17T02:29:14;4.65;;;3.00;;
49221;SDS011;35047;37.588;-122.048;2022-12-17T02:32:02;7.82;;;3.75;;
49221;SDS011;35047;37.588;-122.048;2022-12-17T02:34:48;4.88;;;2.85;;
49221;SDS011;35047;37.588;-122.048;2022-12-17T02:37:34;5.93;;;3.28;;
49221;SDS011;35047;37.588;-122.048;2022-12-17T02:40:21;6.25;;;3.83;;
49221;SDS011;35047;37.588;-122.048;2022-12-17T02:43:08;5.07;;;3.58;;
49221;SDS011;35047;37.588;-122.048;2022-12-17T02:45:55;7.13;;;2.83;;
49221;SDS011;35047;37.588;-122.048;2022-12-17T02:48:40;9.02;;;3.92;;
49221;SDS011;35047;37.588;-122.048;2022-12-17T02:51:25;8.13;;;4.00;;
49221;SDS011;35047;37.588;-122.048;2022-12-17T02:54:11;13.20;;;5.03;;
49221;SDS011;35047;37.588;-122.048;2022-12-17T02:56:56;7.20;;;4.18;;
49221;SDS011;35047;37.588;-122.048;2022-12-17T02:59:42;4.90;;;3.90;;
49221;SDS011;35047;37.588;-122.048;2022-12-17T03:02:27;8.95;;;4.43;;
49221;SDS011;35047;37.588;-122.048;2022-12-17T03:05:11;5.45;;;4.07;;
49221;SDS011;35047;37.588;-122.048;2022-12-17T03:07:57;4.03;;;3.05;;
49221;SDS011;35047;37.588;-122.048;2022-12-17T03:10:41;10.13;;;3.88;;
49221;SDS011;35047;37.588;-122.048;2022-12-17T03:13:28;4.40;;;3.38;;
49221;SDS011;35047;37.588;-122.048;2022-12-17T03:16:15;9.20;;;3.60;;
49221;SDS011;35047;37.588;-122.048;2022-12-17T03:19:00;6.37;;;3.73;;
49221;SDS011;35047;37.588;-122.048;2022-12-17T03:21:47;7.15;;;3.90;;
49221;SDS011;35047;37.588;-122.048;2022-12-17T03:24:32;8.77;;;3.78;;
49221;SDS011;35047;37.588;-122.048;2022-12-17T03:27:18;6.15;;;3.40;;
49221;SDS011;35047;37.588;-122.048;2022-12-17T03:30:03;5.30;;;3.15;;
49221;SDS011;35047;37.588;-122.048;2022-12-17T03:32:49;8.57;;;4.05;;
49221;SDS011;35047;37.588;-122.048;2022-12-17T03:35:34;5.30;;;2.97;;
49221;SDS011;35047;37.588;-122.048;2022-12-17T03:38:19;4.70;;;2.88;;
49221;SDS011;35047;37.588;-122.048;2022-12-17T03:41:05;6.85;;;3.55;;
49221;SDS011;35047;37.588;-122.048;2022-12-17T03:43:50;3.85;;;2.47;;
49221;SDS011;35047;37.588;-122.048;2022-12-17T03:46:36;4.05;;;2.80;;
49221;SDS011;35047;37.588;-122.048;2022-12-17T03:49:21;5.30;;;2.85;;
49221;SDS011;35047;37.588;-122.048;2022-12-17T03:52:06;3.65;;;2.67;;
49221;SDS011;35047;37.588;-122.048;2022-12-17T03:54:52;3.10;;;2.47;;
49221;SDS011;35047;37.588;-122.048;2022-12-17T03:57:37;4.22;;;2.08;;
49221;SDS011;35047;37.588;-122.048;2022-12-17T04:00:40;3.42;;;1.85;;
49221;SDS011;35047;37.588;-122.048;2022-12-17T04:03:25;6.55;;;2.78;;
49221;SDS011;35047;37.588;-122.048;2022-12-17T04:06:10;6.53;;;3.33;;
49221;SDS011;35047;37.588;-122.048;2022-12-17T04:08:56;3.70;;;1.73;;
49221;SDS011;35047;37.588;-122.048;2022-12-17T04:11:42;2.75;;;1.70;;
49221;SDS011;35047;37.588;-122.048;2022-12-17T04:14:28;3.38;;;1.83;;
49221;SDS011;35047;37.588;-122.048;2022-12-17T04:17:13;10.85;;;2.05;;
49221;SDS011;35047;37.588;-122.048;2022-12-17T04:19:59;5.22;;;2.05;;
49221;SDS011;35047;37.588;-122.048;2022-12-17T04:22:44;2.50;;;1.88;;
49221;SDS011;35047;37.588;-122.048;2022-12-17T04:25:30;3.10;;;2.17;;
49221;SDS011;35047;37.588;-122.048;2022-12-17T04:28:15;3.38;;;1.50;;
49221;SDS011;35047;37.588;-122.048;2022-12-17T04:31:01;3.78;;;2.08;;
49221;SDS011;35047;37.588;-122.048;2022-12-17T04:33:47;8.23;;;1.95;;
49221;SDS011;35047;37.588;-122.048;2022-12-17T04:36:32;3.33;;;1.90;;
49221;SDS011;35047;37.588;-122.048;2022-12-17T04:39:17;3.70;;;2.35;;
49221;SDS011;35047;37.588;-122.048;2022-12-17T04:42:02;6.13;;;2.30;;
49221;SDS011;35047;37.588;-122.048;2022-12-17T04:44:47;3.45;;;1.92;;
49221;SDS011;35047;37.588;-122.048;2022-12-17T04:47:32;2.95;;;2.13;;
49221;SDS011;35047;37.588;-122.048;2022-12-17T04:50:22;4.40;;;2.42;;
49221;SDS011;35047;37.588;-122.048;2022-12-17T04:53:08;2.42;;;1.55;;
49221;SDS011;35047;37.588;-122.048;2022-12-17T04:55:54;2.80;;;1.77;;
49221;SDS011;35047;37.588;-122.048;2022-12-17T04:58:39;4.43;;;1.75;;
49221;SDS011;35047;37.588;-122.048;2022-12-17T05:01:25;3.40;;;2.17;;
49221;SDS011;35047;37.588;-122.048;2022-12-17T05:04:10;4.65;;;1.45;;
49221;SDS011;35047;37.588;-122.048;2022-12-17T05:06:56;2.58;;;1.63;;
49221;SDS011;35047;37.588;-122.048;2022-12-17T05:09:41;1.95;;;1.40;;
49221;SDS011;35047;37.588;-122.048;2022-12-17T05:12:28;5.72;;;2.10;;
49221;SDS011;35047;37.588;-122.048;2022-12-17T05:15:13;4.40;;;1.70;;
49221;SDS011;35047;37.588;-122.048;2022-12-17T05:18:04;2.60;;;1.83;;
49221;SDS011;35047;37.588;-122.048;2022-12-17T05:20:50;7.10;;;2.08;;
49221;SDS011;35047;37.588;-122.048;2022-12-17T05:23:35;2.13;;;1.80;;
49221;SDS011;35047;37.588;-122.048;2022-12-17T05:26:21;5.82;;;2.35;;
49221;SDS011;35047;37.588;-122.048;2022-12-17T05:29:08;6.03;;;2.70;;
49221;SDS011;35047;37.588;-122.048;2022-12-17T05:31:53;3.58;;;2.35;;
49221;SDS011;35047;37.588;-122.048;2022-12-17T05:34:39;3.28;;;1.50;;
49221;SDS011;35047;37.588;-122.048;2022-12-17T05:37:24;2.80;;;1.85;;
49221;SDS011;35047;37.588;-122.048;2022-12-17T05:40:10;3.85;;;2.17;;
49221;SDS011;35047;37.588;-122.048;2022-12-17T05:42:56;4.93;;;1.73;;
49221;SDS011;35047;37.588;-122.048;2022-12-17T05:45:44;2.85;;;1.67;;
49221;SDS011;35047;37.588;-122.048;2022-12-17T05:48:30;2.67;;;2.13;;
49221;SDS011;35047;37.588;-122.048;2022-12-17T05:51:17;2.92;;;1.42;;
49221;SDS011;35047;37.588;-122.048;2022-12-17T05:54:03;5.22;;;1.83;;
49221;SDS011;35047;37.588;-122.048;2022-12-17T05:56:48;3.55;;;1.35;;
49221;SDS011;35047;37.588;-122.048;2022-12-17T05:59:34;2.25;;;1.38;;
49221;SDS011;35047;37.588;-122.048;2022-12-17T06:02:19;3.78;;;1.90;;
49221;SDS011;35047;37.588;-122.048;2022-12-17T06:05:05;4.47;;;1.98;;
49221;SDS011;35047;37.588;-122.048;2022-12-17T06:07:50;3.83;;;1.75;;
49221;SDS011;35047;37.588;-122.048;2022-12-17T06:10:35;3.30;;;2.03;;
49221;SDS011;35047;37.588;-122.048;2022-12-17T06:13:20;4.70;;;2.28;;
49221;SDS011;35047;37.588;-122.048;2022-12-17T06:16:06;3.75;;;1.88;;
49221;SDS011;35047;37.588;-122.048;2022-12-17T06:18:50;4.07;;;1.67;;
49221;SDS011;35047;37.588;-122.048;2022-12-17T06:21:36;2.05;;;1.73;;
49221;SDS011;35047;37.588;-122.048;2022-12-17T06:24:21;2.90;;;2.28;;
49221;SDS011;35047;37.588;-122.048;2022-12-17T06:27:07;3.03;;;1.60;;
49221;SDS011;35047;37.588;-122.048;2022-12-17T06:29:52;2.80;;;1.83;;
49221;SDS011;35047;37.588;-122.048;2022-12-17T06:32:39;2.22;;;1.65;;
49221;SDS011;35047;37.588;-122.048;2022-12-17T06:35:23;3.13;;;1.85;;
49221;SDS011;35047;37.588;-122.048;2022-12-17T06:38:09;1.77;;;1.30;;
49221;SDS011;35047;37.588;-122.048;2022-12-17T06:40:58;5.78;;;3.08;;
49221;SDS011;35047;37.588;-122.048;2022-12-17T06:43:44;1.70;;;1.50;;
49221;SDS011;35047;37.588;-122.048;2022-12-17T06:46:29;3.22;;;1.75;;
49221;SDS011;35047;37.588;-122.048;2022-12-17T06:49:19;2.28;;;1.80;;
49221;SDS011;35047;37.588;-122.048;2022-12-17T06:52:04;3.15;;;1.27;;
49221;SDS011;35047;37.588;-122.048;2022-12-17T06:54:49;2.05;;;1.48;;
49221;SDS011;35047;37.588;-122.048;2022-12-17T06:57:34;3.55;;;1.63;;
49221;SDS011;35047;37.588;-122.048;2022-12-17T07:00:20;2.58;;;1.90;;
49221;SDS011;35047;37.588;-122.048;2022-12-17T07:03:08;2.10;;;1.55;;
49221;SDS011;35047;37.588;-122.048;2022-12-17T07:05:58;2.55;;;1.40;;
49221;SDS011;35047;37.588;-122.048;2022-12-17T07:08:44;3.92;;;2.05;;
49221;SDS011;35047;37.588;-122.048;2022-12-17T07:11:29;3.78;;;1.92;;
49221;SDS011;35047;37.588;-122.048;2022-12-17T07:14:15;4.10;;;2.28;;
49221;SDS011;35047;37.588;-122.048;2022-12-17T07:17:01;3.83;;;1.42;;
49221;SDS011;35047;37.588;-122.048;2022-12-17T07:19:45;3.35;;;1.88;;
49221;SDS011;35047;37.588;-122.048;2022-12-17T07:22:32;3.55;;;1.70;;
49221;SDS011;35047;37.588;-122.048;2022-12-17T07:25:17;3.20;;;2.25;;
49221;SDS011;35047;37.588;-122.048;2022-12-17T07:28:02;6.00;;;2.45;;
49221;SDS011;35047;37.588;-122.048;2022-12-17T07:30:48;5.78;;;2.65;;
49221;SDS011;35047;37.588;-122.048;2022-12-17T07:33:34;3.97;;;2.10;;
49221;SDS011;35047;37.588;-122.048;2022-12-17T07:36:19;9.35;;;4.07;;
49221;SDS011;35047;37.588;-122.048;2022-12-17T07:39:04;5.63;;;2.95;;
49221;SDS011;35047;37.588;-122.048;2022-12-17T07:41:50;5.72;;;2.95;;
49221;SDS011;35047;37.588;-122.048;2022-12-17T07:44:35;1.95;;;1.75;;
49221;SDS011;35047;37.588;-122.048;2022-12-17T07:47:20;4.68;;;2.40;;
49221;SDS011;35047;37.588;-122.048;2022-12-17T07:50:06;3.50;;;1.77;;
49221;SDS011;35047;37.588;-122.048;2022-12-17T07:52:58;1.40;;;1.27;;
49221;SDS011;35047;37.588;-122.048;2022-12-17T07:55:47;2.03;;;1.25;;
49221;SDS011;35047;37.588;-122.048;2022-12-17T07:58:33;2.80;;;1.17;;
49221;SDS011;35047;37.588;-122.048;2022-12-17T08:01:18;5.90;;;2.17;;
49221;SDS011;35047;37.588;-122.048;2022-12-17T08:04:03;1.70;;;1.30;;
49221;SDS011;35047;37.588;-122.048;2022-12-17T08:06:49;1.67;;;1.33;;
49221;SDS011;35047;37.588;-122.048;2022-12-17T08:09:34;2.90;;;1.15;;
49221;SDS011;35047;37.588;-122.048;2022-12-17T08:12:20;1.90;;;1.30;;
49221;SDS011;35047;37.588;-122.048;2022-12-17T08:15:05;2.13;;;1.15;;
49221;SDS011;35047;37.588;-122.048;2022-12-17T08:17:57;2.55;;;1.70;;
49221;SDS011;35047;37.588;-122.048;2022-12-17T08:20:43;1.42;;;1.27;;
49221;SDS011;35047;37.588;-122.048;2022-12-17T08:23:29;11.32;;;1.75;;
49221;SDS011;35047;37.588;-122.048;2022-12-17T08:26:17;1.75;;;1.52;;
49221;SDS011;35047;37.588;-122.048;2022-12-17T08:29:03;1.75;;;1.10;;
49221;SDS011;35047;37.588;-122.048;2022-12-17T08:31:48;2.75;;;1.45;;
49221;SDS011;35047;37.588;-122.048;2022-12-17T08:34:34;1.88;;;1.52;;
49221;SDS011;35047;37.588;-122.048;2022-12-17T08:37:30;4.47;;;1.63;;
49221;SDS011;35047;37.588;-122.048;2022-12-17T08:40:15;4.68;;;1.65;;
49221;SDS011;35047;37.588;-122.048;2022-12-17T08:43:00;3.10;;;1.58;;
49221;SDS011;35047;37.588;-122.048;2022-12-17T08:45:50;2.58;;;1.67;;
49221;SDS011;35047;37.588;-122.048;2022-12-17T08:48:36;3.80;;;1.95;;
49221;SDS011;35047;37.588;-122.048;2022-12-17T08:51:21;3.17;;;1.42;;
49221;SDS011;35047;37.588;-122.048;2022-12-17T08:54:08;3.70;;;1.73;;
49221;SDS011;35047;37.588;-122.048;2022-12-17T08:56:53;7.25;;;2.03;;
49221;SDS011;35047;37.588;-122.048;2022-12-17T08:59:39;4.05;;;2.03;;
49221;SDS011;35047;37.588;-122.048;2022-12-17T09:02:24;4.95;;;2.33;;
49221;SDS011;35047;37.588;-122.048;2022-12-17T09:05:09;5.85;;;2.80;;
49221;SDS011;35047;37.588;-122.048;2022-12-17T09:08:01;4.22;;;2.33;;
49221;SDS011;35047;37.588;-122.048;2022-12-17T09:10:50;6.80;;;2.40;;
49221;SDS011;35047;37.588;-122.048;2022-12-17T09:13:36;3.70;;;2.30;;
49221;SDS011;35047;37.588;-122.048;2022-12-17T09:16:21;4.78;;;2.17;;
49221;SDS011;35047;37.588;-122.048;2022-12-17T09:19:11;2.30;;;1.70;;
49221;SDS011;35047;37.588;-122.048;2022-12-17T09:21:56;1.53;;;1.40;;
49221;SDS011;35047;37.588;-122.048;2022-12-17T09:24:41;5.50;;;2.35;;
49221;SDS011;35047;37.588;-122.048;2022-12-17T09:27:26;4.80;;;2.15;;
49221;SDS011;35047;37.588;-122.048;2022-12-17T09:30:12;4.32;;;1.83;;
49221;SDS011;35047;37.588;-122.048;2022-12-17T09:32:56;3.90;;;2.40;;
49221;SDS011;35047;37.588;-122.048;2022-12-17T09:35:42;5.10;;;2.38;;
49221;SDS011;35047;37.588;-122.048;2022-12-17T09:38:27;8.20;;;3.13;;
49221;SDS011;35047;37.588;-122.048;2022-12-17T09:50:35;3.70;;;1.75;;
49221;SDS011;35047;37.588;-122.048;2022-12-17T09:53:23;4.80;;;2.00;;
49221;SDS011;35047;37.588;-122.048;2022-12-17T09:56:10;1.60;;;1.42;;
49221;SDS011;35047;37.588;-122.048;2022-12-17T09:58:58;6.13;;;2.75;;
49221;SDS011;35047;37.588;-122.048;2022-12-17T10:01:44;7.18;;;2.35;;
49221;SDS011;35047;37.588;-122.048;2022-12-17T10:04:33;3.10;;;2.08;;
49221;SDS011;35047;37.588;-122.048;2022-12-17T10:07:21;4.93;;;2.30;;
49221;SDS011;35047;37.588;-122.048;2022-12-17T10:10:20;3.40;;;2.30;;
49221;SDS011;35047;37.588;-122.048;2022-12-17T10:13:12;2.92;;;2.28;;
49221;SDS011;35047;37.588;-122.048;2022-12-17T10:16:17;3.50;;;1.67;;
49221;SDS011;35047;37.588;-122.048;2022-12-17T10:19:10;2.78;;;1.98;;
49221;SDS011;35047;37.588;-122.048;2022-12-17T10:22:09;2.72;;;1.95;;
49221;SDS011;35047;37.588;-122.048;2022-12-17T10:24:57;4.07;;;2.05;;
49221;SDS011;35047;37.588;-122.048;2022-12-17T10:27:48;3.60;;;2.30;;
49221;SDS011;35047;37.588;-122.048;2022-12-17T10:30:33;3.95;;;2.15;;
49221;SDS011;35047;37.588;-122.048;2022-12-17T10:33:19;10.13;;;2.15;;
49221;SDS011;35047;37.588;-122.048;2022-12-17T10:36:05;4.07;;;1.67;;
49221;SDS011;35047;37.588;-122.048;2022-12-17T10:39:05;5.85;;;2.47;;
49221;SDS011;35047;37.588;-122.048;2022-12-17T10:41:58;4.80;;;1.88;;
49221;SDS011;35047;37.588;-122.048;2022-12-17T10:44:42;2.17;;;1.40;;
49221;SDS011;35047;37.588;-122.048;2022-12-17T10:47:27;6.10;;;2.05;;
49221;SDS011;35047;37.588;-122.048;2022-12-17T10:50:18;4.57;;;1.75;;
49221;SDS011;35047;37.588;-122.048;2022-12-17T10:53:20;3.70;;;2.08;;
49221;SDS011;35047;37.588;-122.048;2022-12-17T10:56:18;2.60;;;1.83;;
49221;SDS011;35047;37.588;-122.048;2022-12-17T10:59:12;2.90;;;1.70;;
49221;SDS011;35047;37.588;-122.048;2022-12-17T11:02:15;5.75;;;1.95;;
49221;SDS011;35047;37.588;-122.048;2022-12-17T11:05:07;4.65;;;2.35;;
49221;SDS011;35047;37.588;-122.048;2022-12-17T11:07:58;3.00;;;1.70;;
49221;SDS011;35047;37.588;-122.048;2022-12-17T11:10:45;3.67;;;1.75;;
49221;SDS011;35047;37.588;-122.048;2022-12-17T11:13:35;3.13;;;1.75;;
49221;SDS011;35047;37.588;-122.048;2022-12-17T11:16:28;4.50;;;2.17;;
49221;SDS011;35047;37.588;-122.048;2022-12-17T11:19:24;3.53;;;1.65;;
49221;SDS011;35047;37.588;-122.048;2022-12-17T11:22:18;1.88;;;1.67;;
49221;SDS011;35047;37.588;-122.048;2022-12-17T11:25:06;3.40;;;1.77;;
49221;SDS011;35047;37.588;-122.048;2022-12-17T11:28:19;2.45;;;1.40;;
49221;SDS011;35047;37.588;-122.048;2022-12-17T11:37:44;2.80;;;1.75;;
49221;SDS011;35047;37.588;-122.048;2022-12-17T11:40:54;3.83;;;1.55;;
49221;SDS011;35047;37.588;-122.048;2022-12-17T11:43:49;3.13;;;1.90;;
49221;SDS011;35047;37.588;-122.048;2022-12-17T11:52:35;4.32;;;2.22;;
49221;SDS011;35047;37.588;-122.048;2022-12-17T11:55:35;3.25;;;2.30;;
49221;SDS011;35047;37.588;-122.048;2022-12-17T11:58:58;3.25;;;1.77;;
49221;SDS011;35047;37.588;-122.048;2022-12-17T12:01:43;5.72;;;2.22;;
49221;SDS011;35047;37.588;-122.048;2022-12-17T12:04:51;2.55;;;1.85;;
49221;SDS011;35047;37.588;-122.048;2022-12-17T12:08:00;3.65;;;1.90;;
49221;SDS011;35047;37.588;-122.048;2022-12-17T12:17:38;2.97;;;1.95;;
49221;SDS011;35047;37.588;-122.048;2022-12-17T12:30:22;3.53;;;1.65;;
49221;SDS011;35047;37.588;-122.048;2022-12-17T12:36:04;3.13;;;1.90;;
49221;SDS011;35047;37.588;-122.048;2022-12-17T12:38:53;3.25;;;1.80;;
49221;SDS011;35047;37.588;-122.048;2022-12-17T12:42:02;6.03;;;2.28;;
49221;SDS011;35047;37.588;-122.048;2022-12-17T12:52:07;2.25;;;1.73;;
49221;SDS011;35047;37.588;-122.048;2022-12-17T12:54:55;6.15;;;2.05;;
49221;SDS011;35047;37.588;-122.048;2022-12-17T13:11:43;6.88;;;1.75;;
49221;SDS011;35047;37.588;-122.048;2022-12-17T13:14:17;3.65;;;1.92;;
49221;SDS011;35047;37.588;-122.048;2022-12-17T13:22:26;2.95;;;1.52;;
49221;SDS011;35047;37.588;-122.048;2022-12-17T13:24:55;3.85;;;1.88;;
49221;SDS011;35047;37.588;-122.048;2022-12-17T13:27:41;5.00;;;2.17;;
49221;SDS011;35047;37.588;-122.048;2022-12-17T13:33:49;3.60;;;1.85;;
49221;SDS011;35047;37.588;-122.048;2022-12-17T13:44:11;4.63;;;2.55;;
49221;SDS011;35047;37.588;-122.048;2022-12-17T13:49:19;5.82;;;2.40;;
49221;SDS011;35047;37.588;-122.048;2022-12-17T13:52:04;3.45;;;2.00;;
49221;SDS011;35047;37.588;-122.048;2022-12-17T13:54:40;5.07;;;2.28;;
49221;SDS011;35047;37.588;-122.048;2022-12-17T13:59:39;1.77;;;1.33;;
49221;SDS011;35047;37.588;-122.048;2022-12-17T14:02:20;6.68;;;2.30;;
49221;SDS011;35047;37.588;-122.048;2022-12-17T14:04:55;2.83;;;1.98;;
49221;SDS011;35047;37.588;-122.048;2022-12-17T14:07:25;3.00;;;2.17;;
49221;SDS011;35047;37.588;-122.048;2022-12-17T14:09:52;2.70;;;1.90;;
49221;SDS011;35047;37.588;-122.048;2022-12-17T14:15:01;2.88;;;1.90;;
49221;SDS011;35047;37.588;-122.048;2022-12-17T14:20:10;2.50;;;1.63;;
49221;SDS011;35047;37.588;-122.048;2022-12-17T14:22:49;4.93;;;2.35;;
49221;SDS011;35047;37.588;-122.048;2022-12-17T14:25:20;2.38;;;1.83;;
49221;SDS011;35047;37.588;-122.048;2022-12-17T14:27:59;4.10;;;2.13;;
49221;SDS011;35047;37.588;-122.048;2022-12-17T14:30:32;2.90;;;1.65;;
49221;SDS011;35047;37.588;-122.048;2022-12-17T14:33:01;6.32;;;1.98;;
49221;SDS011;35047;37.588;-122.048;2022-12-17T14:35:30;3.85;;;1.48;;
49221;SDS011;35047;37.588;-122.048;2022-12-17T14:38:01;4.65;;;1.50;;
49221;SDS011;35047;37.588;-122.048;2022-12-17T14:40:29;4.22;;;2.45;;
49221;SDS011;35047;37.588;-122.048;2022-12-17T14:42:58;4.90;;;3.08;;
49221;SDS011;35047;37.588;-122.048;2022-12-17T14:45:26;2.67;;;1.80;;
49221;SDS011;35047;37.588;-122.048;2022-12-17T14:47:54;3.58;;;2.47;;
49221;SDS011;35047;37.588;-122.048;2022-12-17T14:50:32;3.42;;;1.90;;
49221;SDS011;35047;37.588;-122.048;2022-12-17T14:53:03;2.83;;;1.83;;
49221;SDS011;35047;37.588;-122.048;2022-12-17T14:55:56;6.38;;;2.65;;
49221;SDS011;35047;37.588;-122.048;2022-12-17T14:58:24;4.32;;;2.20;;
49221;SDS011;35047;37.588;-122.048;2022-12-17T15:00:57;3.25;;;1.58;;
49221;SDS011;35047;37.588;-122.048;2022-12-17T15:03:36;4.30;;;2.67;;
49221;SDS011;35047;37.588;-122.048;2022-12-17T15:06:10;5.97;;;1.70;;
49221;SDS011;35047;37.588;-122.048;2022-12-17T15:08:43;3.63;;;1.88;;
49221;SDS011;35047;37.588;-122.048;2022-12-17T15:11:14;7.35;;;2.08;;
49221;SDS011;35047;37.588;-122.048;2022-12-17T15:13:44;4.22;;;2.40;;
49221;SDS011;35047;37.588;-122.048;2022-12-17T15:16:11;3.03;;;2.10;;
49221;SDS011;35047;37.588;-122.048;2022-12-17T15:18:37;3.55;;;2.25;;
49221;SDS011;35047;37.588;-122.048;2022-12-17T15:21:05;6.95;;;2.70;;
49221;SDS011;35047;37.588;-122.048;2022-12-17T15:23:36;4.45;;;1.85;;
49221;SDS011;35047;37.588;-122.048;2022-12-17T15:26:08;3.80;;;2.22;;
49221;SDS011;35047;37.588;-122.048;2022-12-17T15:28:35;4.00;;;2.22;;
49221;SDS011;35047;37.588;-122.048;2022-12-17T15:31:02;4.38;;;2.38;;
49221;SDS011;35047;37.588;-122.048;2022-12-17T15:33:29;5.75;;;1.95;;
49221;SDS011;35047;37.588;-122.048;2022-12-17T15:35:56;4.55;;;2.15;;
49221;SDS011;35047;37.588;-122.048;2022-12-17T15:38:23;4.03;;;2.28;;
49221;SDS011;35047;37.588;-122.048;2022-12-17T15:43:17;3.60;;;1.65;;
49221;SDS011;35047;37.588;-122.048;2022-12-17T15:45:46;3.95;;;2.17;;
49221;SDS011;35047;37.588;-122.048;2022-12-17T15:48:19;5.43;;;2.22;;
49221;SDS011;35047;37.588;-122.048;2022-12-17T15:50:49;4.72;;;2.22;;
49221;SDS011;35047;37.588;-122.048;2022-12-17T15:53:17;2.75;;;2.08;;
49221;SDS011;35047;37.588;-122.048;2022-12-17T15:55:43;3.28;;;1.80;;
49221;SDS011;35047;37.588;-122.048;2022-12-17T15:58:10;3.83;;;2.03;;
49221;SDS011;35047;37.588;-122.048;2022-12-17T16:03:06;3.65;;;2.13;;
49221;SDS011;35047;37.588;-122.048;2022-12-17T16:05:32;4.70;;;1.80;;
49221;SDS011;35047;37.588;-122.048;2022-12-17T16:08:00;3.63;;;2.08;;
49221;SDS011;35047;37.588;-122.048;2022-12-17T16:10:27;2.28;;;1.63;;
49221;SDS011;35047;37.588;-122.048;2022-12-17T16:12:54;6.35;;;2.10;;
49221;SDS011;35047;37.588;-122.048;2022-12-17T16:15:22;2.80;;;1.65;;
49221;SDS011;35047;37.588;-122.048;2022-12-17T16:17:49;2.80;;;1.95;;
49221;SDS011;35047;37.588;-122.048;2022-12-17T16:20:15;5.15;;;1.73;;
49221;SDS011;35047;37.588;-122.048;2022-12-17T16:22:43;5.38;;;2.72;;
49221;SDS011;35047;37.588;-122.048;2022-12-17T16:25:09;4.63;;;2.40;;
49221;SDS011;35047;37.588;-122.048;2022-12-17T16:27:37;6.72;;;2.58;;
49221;SDS011;35047;37.588;-122.048;2022-12-17T16:30:04;8.05;;;2.80;;
49221;SDS011;35047;37.588;-122.048;2022-12-17T16:32:32;4.85;;;2.33;;
49221;SDS011;35047;37.588;-122.048;2022-12-17T16:34:58;5.53;;;2.47;;
49221;SDS011;35047;37.588;-122.048;2022-12-17T16:37:25;5.40;;;2.80;;
49221;SDS011;35047;37.588;-122.048;2022-12-17T16:39:52;4.20;;;2.03;;
49221;SDS011;35047;37.588;-122.048;2022-12-17T16:42:19;4.35;;;2.33;;
49221;SDS011;35047;37.588;-122.048;2022-12-17T16:44:47;4.82;;;2.65;;
49221;SDS011;35047;37.588;-122.048;2022-12-17T16:47:13;4.18;;;2.67;;
49221;SDS011;35047;37.588;-122.048;2022-12-17T16:49:40;5.87;;;2.73;;
49221;SDS011;35047;37.588;-122.048;2022-12-17T16:52:07;7.23;;;3.90;;
49221;SDS011;35047;37.588;-122.048;2022-12-17T16:54:34;5.28;;;2.85;;
49221;SDS011;35047;37.588;-122.048;2022-12-17T16:57:01;4.57;;;3.08;;
49221;SDS011;35047;37.588;-122.048;2022-12-17T16:59:27;3.45;;;2.90;;
49221;SDS011;35047;37.588;-122.048;2022-12-17T17:04:24;3.58;;;2.65;;
49221;SDS011;35047;37.588;-122.048;2022-12-17T17:06:52;5.43;;;2.70;;
49221;SDS011;35047;37.588;-122.048;2022-12-17T17:09:22;5.38;;;2.78;;
49221;SDS011;35047;37.588;-122.048;2022-12-17T17:11:51;9.55;;;2.83;;
49221;SDS011;35047;37.588;-122.048;2022-12-17T17:14:21;5.55;;;2.53;;
49221;SDS011;35047;37.588;-122.048;2022-12-17T17:16:48;3.90;;;2.70;;
49221;SDS011;35047;37.588;-122.048;2022-12-17T17:19:15;5.85;;;2.47;;
49221;SDS011;35047;37.588;-122.048;2022-12-17T17:21:52;3.08;;;2.78;;
49221;SDS011;35047;37.588;-122.048;2022-12-17T17:24:20;4.88;;;2.70;;
49221;SDS011;35047;37.588;-122.048;2022-12-17T17:26:50;2.50;;;2.30;;